Time;durP1;ratioP1;P1;durP2;ratioP2;P2;SDS_P1;SDS_P2;PMS_P1;PMS_P2;Temp;Humidity;BMP_temperature;BMP_pressure;BME280_temperature;BME280_humidity;BME280_pressure;Samples;Min_cycle;Max_cycle;Signal;HPM_P1;HPM_P2
2023/07/02 00:00:12;;;;;;;14.07;5.57;;;21.50;71.10;;;;;;4009735;29;20225;-45
2023/07/02 00:02:53;;;;;;;10.23;5.20;;;21.50;71.00;;;;;;4013944;29;20065;-48
2023/07/02 00:05:34;;;;;;;14.10;5.15;;;21.40;70.70;;;;;;4006064;29;20254;-47
2023/07/02 00:08:15;;;;;;;13.32;4.95;;;21.40;70.80;;;;;;4006070;29;20064;-48
2023/07/02 00:10:57;;;;;;;13.85;6.13;;;21.40;71.50;;;;;;4005920;29;20060;-47
2023/07/02 00:13:39;;;;;;;14.75;5.63;;;21.40;70.30;;;;;;4005988;29;20061;-47
2023/07/02 00:16:20;;;;;;;11.55;5.63;;;21.40;70.20;;;;;;4005947;29;20061;-45
2023/07/02 00:19:01;;;;;;;18.55;6.35;;;21.40;70.30;;;;;;4014880;29;20410;-49
2023/07/02 00:21:43;;;;;;;13.70;5.95;;;21.40;70.20;;;;;;4021116;29;20068;-45
2023/07/02 00:24:23;;;;;;;13.52;6.15;;;21.40;71.00;;;;;;4021004;29;20061;-49
2023/07/02 00:27:05;;;;;;;14.25;5.55;;;21.40;70.10;;;;;;4021211;29;20067;-45
2023/07/02 00:29:48;;;;;;;15.35;6.82;;;21.40;71.10;;;;;;4023598;29;20064;-48
2023/07/02 00:32:28;;;;;;;10.90;5.57;;;21.40;69.80;;;;;;4012220;29;20145;-47
2023/07/02 00:35:09;;;;;;;14.90;6.28;;;21.40;69.60;;;;;;4012498;29;20068;-46
2023/07/02 00:37:51;;;;;;;15.55;5.82;;;21.30;69.80;;;;;;4023842;29;20063;-49
2023/07/02 00:40:32;;;;;;;13.93;6.65;;;21.30;69.80;;;;;;4023915;29;20060;-45
2023/07/02 00:43:13;;;;;;;16.30;6.55;;;21.30;69.80;;;;;;4012240;29;20522;-45
2023/07/02 00:45:56;;;;;;;13.68;5.95;;;21.30;69.80;;;;;;4023763;29;20064;-47
2023/07/02 00:48:37;;;;;;;16.30;7.20;;;21.30;69.80;;;;;;4024070;29;20067;-47
2023/07/02 00:51:19;;;;;;;17.90;6.18;;;21.30;69.70;;;;;;4023340;29;20425;-44
2023/07/02 00:54:00;;;;;;;18.33;7.22;;;21.30;69.60;;;;;;4008183;29;20517;-45
2023/07/02 00:56:41;;;;;;;14.93;6.78;;;21.30;69.50;;;;;;4008408;29;20276;-45
2023/07/02 00:59:22;;;;;;;19.75;7.68;;;21.30;69.40;;;;;;4007965;29;20061;-49
2023/07/02 01:02:06;;;;;;;21.75;7.72;;;21.30;69.40;;;;;;4008669;29;20060;-49
2023/07/02 01:04:49;;;;;;;15.07;7.45;;;21.30;69.30;;;;;;4023241;29;20064;-48
2023/07/02 01:07:31;;;;;;;16.35;6.68;;;21.30;69.20;;;;;;4010795;29;20052;-47
2023/07/02 01:10:12;;;;;;;22.58;7.30;;;21.20;69.10;;;;;;4011796;29;20496;-47
2023/07/02 01:12:54;;;;;;;14.77;7.35;;;21.30;69.10;;;;;;4011992;29;20068;-47
2023/07/02 01:15:36;;;;;;;18.50;7.13;;;21.20;68.90;;;;;;4016236;29;20147;-47
2023/07/02 01:18:19;;;;;;;17.60;7.90;;;21.20;68.70;;;;;;4007895;29;20073;-45
2023/07/02 01:21:01;;;;;;;17.90;7.65;;;21.20;68.60;;;;;;4014984;29;20393;-46
2023/07/02 01:23:42;;;;;;;14.32;6.60;;;21.20;68.90;;;;;;4007925;29;20527;-47
2023/07/02 01:26:23;;;;;;;17.83;7.53;;;21.20;68.90;;;;;;4007216;29;20075;-47
2023/07/02 01:29:15;;;;;;;19.52;7.53;;;21.20;68.90;;;;;;4007146;29;20076;-45
2023/07/02 01:31:56;;;;;;;19.95;8.18;;;21.20;68.60;;;;;;4020823;29;20061;-47
2023/07/02 01:34:38;;;;;;;19.13;7.25;;;21.20;70.20;;;;;;4023125;29;20555;-46
2023/07/02 01:37:21;;;;;;;17.52;8.10;;;21.20;69.20;;;;;;4022543;29;20113;-45
2023/07/02 01:40:03;;;;;;;17.90;7.30;;;21.20;69.20;;;;;;4007173;29;20202;-49
2023/07/02 01:42:44;;;;;;;19.27;7.68;;;21.20;69.30;;;;;;4007886;29;20163;-44
2023/07/02 01:45:25;;;;;;;18.55;7.20;;;21.20;69.20;;;;;;4007690;29;20069;-45
2023/07/02 01:48:07;;;;;;;19.52;6.93;;;21.10;69.30;;;;;;3996314;29;20600;-47
2023/07/02 01:50:48;;;;;;;19.27;7.50;;;21.10;69.30;;;;;;4006207;29;20068;-48
2023/07/02 01:53:30;;;;;;;19.35;7.65;;;21.10;69.30;;;;;;4022287;29;20065;-48
2023/07/02 01:56:11;;;;;;;20.33;7.78;;;21.10;69.20;;;;;;4011203;29;20069;-46
2023/07/02 01:58:52;;;;;;;20.00;8.02;;;21.10;69.30;;;;;;4011245;29;20073;-45
2023/07/02 02:01:33;;;;;;;19.88;7.60;;;21.10;69.20;;;;;;3996086;29;20134;-46
2023/07/02 02:04:14;;;;;;;19.25;7.95;;;21.10;69.90;;;;;;4007472;29;20193;-45
2023/07/02 02:06:55;;;;;;;;;;;21.10;69.20;;;;;;4008196;29;20092;-45
2023/07/02 02:09:37;;;;;;;21.30;8.52;;;21.10;69.60;;;;;;4008989;29;19935;-46
2023/07/02 02:12:19;;;;;;;16.75;7.88;;;21.00;70.00;;;;;;4022533;29;20060;-47
2023/07/02 02:14:59;;;;;;;18.65;8.27;;;21.10;69.70;;;;;;4010788;29;20057;-48
2023/07/02 02:17:40;;;;;;;22.58;7.63;;;21.10;69.50;;;;;;4022354;29;20060;-47
2023/07/02 02:20:21;;;;;;;20.77;8.75;;;21.00;69.30;;;;;;4022173;29;20068;-50
2023/07/02 02:23:03;;;;;;;15.90;7.57;;;21.00;69.10;;;;;;4010903;29;20112;-49
2023/07/02 02:25:46;;;;;;;21.40;8.43;;;21.00;69.00;;;;;;4019462;29;20064;-47
2023/07/02 02:28:27;;;;;;;19.25;8.13;;;21.00;68.90;;;;;;4000041;29;20141;-48
2023/07/02 02:31:08;;;;;;;20.13;8.48;;;21.00;68.90;;;;;;4022239;29;20608;-47
2023/07/02 02:33:50;;;;;;;18.05;8.18;;;21.00;69.20;;;;;;4022516;29;20632;-47
2023/07/02 02:36:32;;;;;;;22.23;7.72;;;21.00;69.90;;;;;;4010741;29;20280;-45
2023/07/02 02:39:14;;;;;;;20.45;8.40;;;21.00;69.80;;;;;;4010700;29;20056;-48
2023/07/02 02:41:56;;;;;;;20.25;7.90;;;21.00;68.90;;;;;;4018033;29;20431;-44
2023/07/02 02:44:37;;;;;;;21.38;7.93;;;21.00;69.60;;;;;;4006823;29;20064;-46
2023/07/02 02:47:19;;;;;;;21.42;8.13;;;21.00;68.80;;;;;;4006805;29;20060;-47
2023/07/02 02:50:00;;;;;;;20.98;7.93;;;20.90;69.60;;;;;;4021922;29;20064;-45
2023/07/02 02:52:42;;;;;;;18.15;7.68;;;20.90;69.00;;;;;;4021168;29;20137;-47
2023/07/02 02:55:23;;;;;;;;;;;20.90;68.90;;;;;;4022457;29;20421;-46
2023/07/02 02:58:05;;;;;;;23.42;8.80;;;20.90;69.20;;;;;;3994826;29;20045;-54
2023/07/02 03:00:46;;;;;;;18.80;8.20;;;20.90;69.70;;;;;;4006561;29;20064;-54
2023/07/02 03:03:28;;;;;;;18.63;8.18;;;20.90;69.30;;;;;;3994640;29;20064;-53
2023/07/02 03:06:09;;;;;;;20.60;8.50;;;20.90;69.20;;;;;;3994760;29;20065;-52
2023/07/02 03:08:50;;;;;;;19.27;7.45;;;20.90;69.10;;;;;;4020937;29;20512;-53
2023/07/02 03:11:30;;;;;;;18.52;7.75;;;20.90;69.10;;;;;;4010287;29;20061;-52
2023/07/02 03:14:13;;;;;;;18.98;8.45;;;20.90;69.20;;;;;;4005405;29;20064;-54
2023/07/02 03:16:54;;;;;;;16.77;7.43;;;20.90;69.10;;;;;;4010563;29;20437;-54
2023/07/02 03:19:35;;;;;;;;;;;20.90;69.20;;;;;;4022018;29;20068;-52
2023/07/02 03:22:16;;;;;;;22.10;8.00;;;20.90;69.40;;;;;;4021818;29;19930;-53
2023/07/02 03:24:58;;;;;;;30.60;9.05;;;20.80;69.80;;;;;;4021202;29;20068;-54
2023/07/02 03:27:39;;;;;;;19.65;7.68;;;20.80;69.50;;;;;;4021448;29;20124;-53
2023/07/02 03:30:22;;;;;;;;;;;20.80;70.10;;;;;;4016934;29;20140;-54
2023/07/02 03:33:03;;;;;;;22.65;9.07;;;20.80;70.30;;;;;;4015066;29;19976;-54
2023/07/02 03:35:44;;;;;;;19.25;7.78;;;20.80;69.90;;;;;;4021065;29;20065;-53
2023/07/02 03:38:25;;;;;;;23.83;8.68;;;20.80;69.50;;;;;;4021038;29;20064;-52
2023/07/02 03:41:06;;;;;;;19.63;7.97;;;20.80;69.30;;;;;;4009687;29;20068;-54
2023/07/02 03:43:48;;;;;;;21.20;7.90;;;20.80;69.30;;;;;;4021170;29;20065;-54
2023/07/02 03:46:30;;;;;;;22.38;8.07;;;20.80;70.10;;;;;;4014590;29;20421;-52
2023/07/02 03:49:12;;;;;;;23.40;8.45;;;20.80;69.20;;;;;;4005924;29;20162;-52
2023/07/02 03:51:53;;;;;;;18.65;9.10;;;20.70;69.50;;;;;;4006190;29;20517;-54
2023/07/02 03:54:34;;;;;;;17.05;7.72;;;20.70;69.50;;;;;;4006195;29;20064;-54
2023/07/02 03:57:15;;;;;;;;;;;20.70;69.30;;;;;;4021699;29;20057;-54
2023/07/02 03:59:56;;;;;;;22.95;8.35;;;20.70;69.50;;;;;;4020974;29;19935;-54
2023/07/02 04:02:38;;;;;;;22.10;7.70;;;20.70;69.90;;;;;;4008309;29;20061;-55
2023/07/02 04:05:19;;;;;;;23.50;8.23;;;20.70;69.60;;;;;;4023828;29;20061;-53
2023/07/02 04:08:00;;;;;;;18.20;7.55;;;20.70;69.60;;;;;;4023853;29;20185;-54
2023/07/02 04:10:41;;;;;;;19.27;8.02;;;20.70;69.50;;;;;;4024282;29;20141;-53
2023/07/02 04:13:22;;;;;;;21.60;7.78;;;20.70;69.70;;;;;;4023937;29;20052;-55
2023/07/02 04:16:04;;;;;;;22.13;7.65;;;20.70;69.80;;;;;;4023613;29;20155;-54
2023/07/02 04:18:46;;;;;;;;;;;20.70;69.70;;;;;;4001880;29;20173;-55
2023/07/02 04:21:27;;;;;;;18.15;7.25;;;20.70;69.90;;;;;;4008951;29;20411;-52
2023/07/02 04:24:08;;;;;;;16.48;7.32;;;20.70;70.20;;;;;;3997565;29;20504;-53
2023/07/02 04:26:49;;;;;;;17.08;7.35;;;20.70;70.00;;;;;;4009140;29;20140;-54
2023/07/02 04:29:44;;;;;;;22.85;7.82;;;20.70;70.80;;;;;;3997375;29;20064;-51
2023/07/02 04:32:25;;;;;;;20.17;7.60;;;20.70;70.00;;;;;;4008683;29;20106;-53
2023/07/02 04:35:09;;;;;;;18.73;7.32;;;20.70;69.90;;;;;;3997377;29;20138;-55
2023/07/02 04:37:50;;;;;;;20.20;8.38;;;20.70;69.70;;;;;;4008675;29;20446;-51
2023/07/02 04:40:31;;;;;;;20.92;7.15;;;20.70;69.70;;;;;;4023251;29;20068;-51
2023/07/02 04:43:12;;;;;;;20.17;8.13;;;20.70;69.90;;;;;;4023636;29;20125;-51
2023/07/02 04:45:53;;;;;;;17.83;7.32;;;20.70;69.90;;;;;;3998027;29;20186;-53
2023/07/02 04:48:34;;;;;;;20.05;8.35;;;20.70;69.90;;;;;;4008542;29;20064;-54
2023/07/02 04:51:17;;;;;;;20.38;7.75;;;20.70;69.80;;;;;;4008541;29;20088;-53
2023/07/02 04:53:58;;;;;;;22.27;8.05;;;20.70;69.80;;;;;;4011295;29;20060;-54
2023/07/02 04:56:39;;;;;;;18.83;7.78;;;20.70;69.80;;;;;;4012337;29;20191;-52
2023/07/02 04:59:22;;;;;;;20.08;7.60;;;20.70;69.90;;;;;;4023366;29;20429;-53
2023/07/02 05:02:04;;;;;;;20.95;7.97;;;20.70;70.00;;;;;;4023455;29;20515;-54
2023/07/02 05:04:45;;;;;;;19.73;7.40;;;20.70;69.70;;;;;;4023216;29;20121;-51
2023/07/02 05:07:27;;;;;;;20.10;8.45;;;20.70;69.50;;;;;;4008397;29;20118;-52
2023/07/02 05:10:09;;;;;;;19.42;7.72;;;20.70;69.50;;;;;;4008465;29;20653;-51
2023/07/02 05:12:50;;;;;;;25.48;8.13;;;20.80;69.60;;;;;;4019661;29;20060;-53
2023/07/02 05:15:31;;;;;;;22.33;8.35;;;20.80;69.70;;;;;;4022404;29;20102;-54
2023/07/02 05:18:12;;;;;;;19.63;7.75;;;20.80;69.80;;;;;;4023282;29;20198;-54
2023/07/02 05:20:53;;;;;;;17.38;7.05;;;20.80;70.60;;;;;;4023358;29;20189;-52
2023/07/02 05:23:35;;;;;;;17.35;7.63;;;20.80;69.60;;;;;;4018720;29;20069;-55
2023/07/02 05:26:16;;;;;;;21.30;7.45;;;20.90;69.80;;;;;;4007902;29;20078;-57
2023/07/02 05:28:57;;;;;;;19.48;7.15;;;20.90;70.40;;;;;;4015070;29;20150;-54
2023/07/02 05:31:38;;;;;;;16.70;7.45;;;21.00;69.50;;;;;;4023176;29;20064;-54
2023/07/02 05:34:19;;;;;;;15.15;5.75;;;21.00;70.00;;;;;;4022757;29;20059;-54
2023/07/02 05:37:00;;;;;;;19.95;7.28;;;21.10;68.80;;;;;;4022565;29;20057;-54
2023/07/02 05:39:42;;;;;;;16.73;6.35;;;21.10;69.40;;;;;;4023328;29;20073;-50
2023/07/02 05:42:23;;;;;;;16.17;6.78;;;21.10;68.40;;;;;;4023155;29;20069;-50
2023/07/02 05:45:05;;;;;;;14.93;5.82;;;21.10;68.20;;;;;;4022955;29;20052;-53
2023/07/02 05:47:45;;;;;;;;;;;21.10;68.30;;;;;;4023286;29;20065;-52
2023/07/02 05:50:26;;;;;;;17.23;6.50;;;21.00;68.40;;;;;;4022958;29;19984;-52
2023/07/02 05:53:09;;;;;;;14.85;6.45;;;21.00;68.60;;;;;;4023070;29;20936;-54
2023/07/02 05:55:51;;;;;;;11.45;5.55;;;21.00;68.10;;;;;;4022850;29;20060;-52
2023/07/02 05:58:31;;;;;;;12.65;5.38;;;21.00;67.30;;;;;;3996096;29;20084;-51
2023/07/02 06:01:27;;;;;;;13.40;5.75;;;21.00;67.10;;;;;;4007330;29;20089;-54
2023/07/02 06:04:08;;;;;;;14.90;5.78;;;21.00;66.60;;;;;;4007522;29;20121;-51
2023/07/02 06:06:49;;;;;;;12.80;4.95;;;21.00;66.70;;;;;;4010352;29;20638;-49
2023/07/02 06:09:30;;;;;;;9.82;4.40;;;21.10;68.10;;;;;;4009401;29;20057;-45
2023/07/02 06:12:12;;;;;;;18.17;4.72;;;21.10;67.90;;;;;;4018062;29;20069;-47
2023/07/02 06:14:53;;;;;;;16.27;6.07;;;21.10;67.60;;;;;;4007367;29;20061;-45
2023/07/02 06:17:34;;;;;;;11.65;4.78;;;21.20;67.20;;;;;;4012386;29;20076;-48
2023/07/02 06:20:16;;;;;;;17.67;5.70;;;21.30;65.90;;;;;;4012879;29;20057;-46
2023/07/02 06:22:57;;;;;;;13.85;5.68;;;21.30;65.30;;;;;;4025802;29;20049;-55
2023/07/02 06:25:38;;;;;;;12.40;4.88;;;21.30;64.90;;;;;;4017088;29;20061;-47
2023/07/02 06:28:21;;;;;;;9.57;4.82;;;21.30;64.50;;;;;;4016795;29;20059;-47
2023/07/02 06:31:02;;;;;;;13.30;4.93;;;21.40;63.90;;;;;;4013869;29;20052;-45
2023/07/02 06:33:43;;;;;;;6.82;3.63;;;21.40;63.50;;;;;;4029266;29;20193;-44
2023/07/02 06:36:23;;;;;;;13.25;5.60;;;21.50;63.20;;;;;;4020583;29;20075;-45
2023/07/02 06:39:05;;;;;;;14.68;6.15;;;21.50;62.50;;;;;;4002100;29;20398;-45
2023/07/02 06:41:45;;;;;;;11.82;5.63;;;21.60;62.60;;;;;;3994298;29;20068;-44
2023/07/02 06:44:28;;;;;;;18.48;5.80;;;21.60;62.30;;;;;;4013883;29;20060;-57
2023/07/02 06:47:09;;;;;;;15.57;4.78;;;21.70;62.10;;;;;;4018016;29;20057;-57
2023/07/02 06:49:49;;;;;;;11.98;4.88;;;21.70;62.10;;;;;;4009102;29;20067;-58
2023/07/02 06:52:30;;;;;;;14.05;5.38;;;21.80;61.90;;;;;;4016759;29;20069;-58
2023/07/02 06:55:12;;;;;;;7.65;4.00;;;21.80;61.40;;;;;;3997760;29;20145;-58
2023/07/02 06:57:53;;;;;;;9.85;4.47;;;21.90;61.20;;;;;;4018559;29;20545;-58
2023/07/02 07:00:36;;;;;;;15.52;5.18;;;21.90;60.90;;;;;;4008134;29;20059;-57
2023/07/02 07:03:17;;;;;;;15.18;5.07;;;21.80;61.60;;;;;;4017770;29;20191;-58
2023/07/02 07:05:58;;;;;;;16.45;5.47;;;21.80;60.60;;;;;;4006665;29;20060;-57
2023/07/02 07:08:39;;;;;;;11.65;3.97;;;21.80;61.50;;;;;;3995400;29;20201;-57
2023/07/02 07:11:20;;;;;;;9.63;3.85;;;21.70;60.50;;;;;;4006670;29;20061;-57
2023/07/02 07:14:01;;;;;;;8.27;4.05;;;21.70;60.50;;;;;;4012314;29;20051;-58
2023/07/02 07:16:43;;;;;;;8.50;2.95;;;21.70;60.30;;;;;;4021893;29;20139;-57
2023/07/02 07:19:24;;;;;;;8.68;3.40;;;21.70;60.00;;;;;;4021735;29;20072;-58
2023/07/02 07:22:05;;;;;;;9.80;3.35;;;21.70;60.30;;;;;;4016795;29;20059;-58
2023/07/02 07:24:46;;;;;;;6.93;2.47;;;21.80;59.20;;;;;;4032070;29;20060;-57
2023/07/02 07:27:27;;;;;;;9.25;3.38;;;21.80;59.00;;;;;;4036889;29;20408;-57
2023/07/02 07:30:09;;;;;;;7.97;3.22;;;21.80;58.70;;;;;;4036917;29;20083;-57
2023/07/02 07:32:51;;;;;;;;;;;21.80;58.20;;;;;;4037447;29;20460;-59
2023/07/02 07:35:33;;;;;;;9.43;3.05;;;21.90;58.10;;;;;;3995215;29;19935;-58
2023/07/02 07:38:14;;;;;;;8.27;2.65;;;21.90;57.80;;;;;;4009227;29;20064;-58
2023/07/02 07:40:55;;;;;;;9.52;2.95;;;21.90;57.30;;;;;;4010153;29;20060;-58
2023/07/02 07:43:37;;;;;;;;;;;21.90;56.90;;;;;;4010595;29;20150;-56
2023/07/02 07:46:17;;;;;;;7.20;2.75;;;21.90;56.70;;;;;;4008245;29;19932;-58
2023/07/02 07:49:00;;;;;;;5.75;2.85;;;21.90;56.90;;;;;;4021479;29;20101;-58
2023/07/02 07:51:41;;;;;;;8.88;2.88;;;22.00;56.60;;;;;;4021556;29;20064;-59
2023/07/02 07:54:22;;;;;;;7.60;2.58;;;22.00;56.70;;;;;;4021472;29;20061;-58
2023/07/02 07:57:03;;;;;;;7.07;3.08;;;22.00;56.60;;;;;;4020776;29;20060;-58
2023/07/02 07:59:44;;;;;;;16.77;3.35;;;22.00;56.50;;;;;;4021386;29;20073;-59
2023/07/02 08:02:25;;;;;;;4.53;2.40;;;21.90;56.50;;;;;;4021529;29;20548;-50
2023/07/02 08:05:08;;;;;;;7.00;2.80;;;21.90;56.60;;;;;;4021283;29;20060;-49
2023/07/02 08:07:49;;;;;;;6.25;2.47;;;21.90;56.60;;;;;;4021405;29;20134;-48
2023/07/02 08:10:30;;;;;;;8.18;3.00;;;21.90;56.40;;;;;;4020585;29;20064;-50
2023/07/02 08:13:11;;;;;;;9.07;2.47;;;21.90;56.30;;;;;;4021467;29;20169;-48
2023/07/02 08:15:52;;;;;;;5.65;1.98;;;21.90;56.30;;;;;;4021267;29;20145;-50
2023/07/02 08:18:33;;;;;;;5.15;2.60;;;21.90;56.30;;;;;;4021484;29;20064;-50
2023/07/02 08:21:15;;;;;;;8.75;2.67;;;21.90;56.20;;;;;;4017584;29;20065;-50
2023/07/02 08:23:57;;;;;;;5.70;2.55;;;21.90;56.20;;;;;;4021379;29;20550;-51
2023/07/02 08:26:38;;;;;;;34.20;4.32;;;21.90;56.20;;;;;;4024697;29;20060;-51
2023/07/02 08:29:19;;;;;;;6.22;1.85;;;21.90;56.20;;;;;;4020965;29;20060;-50
2023/07/02 08:32:00;;;;;;;11.82;3.30;;;21.80;56.10;;;;;;4021126;29;20084;-50
2023/07/02 08:34:41;;;;;;;5.57;2.55;;;21.80;56.10;;;;;;4009422;29;20089;-50
2023/07/02 08:37:23;;;;;;;5.55;2.97;;;21.70;56.00;;;;;;4020553;29;20051;-48
2023/07/02 08:40:06;;;;;;;8.88;2.90;;;21.70;56.10;;;;;;4009173;29;20088;-49
2023/07/02 08:42:48;;;;;;;9.13;2.95;;;21.70;56.30;;;;;;4005748;29;20068;-53
2023/07/02 08:45:29;;;;;;;13.38;3.33;;;21.60;56.20;;;;;;4005885;29;20501;-58
2023/07/02 08:48:11;;;;;;;10.70;3.05;;;21.60;56.50;;;;;;4020607;29;20060;-58
2023/07/02 08:50:52;;;;;;;5.85;3.45;;;21.60;56.50;;;;;;4023657;29;20060;-59
2023/07/02 08:53:34;;;;;;;10.20;3.47;;;21.50;56.60;;;;;;4023735;29;20574;-58
2023/07/02 08:56:15;;;;;;;7.70;2.97;;;21.50;56.90;;;;;;4023428;29;20060;-59
2023/07/02 08:58:56;;;;;;;10.50;3.25;;;21.50;57.20;;;;;;4023628;29;20517;-58
2023/07/02 09:01:47;;;;;;;9.70;3.63;;;21.50;57.50;;;;;;4023366;29;20405;-59
2023/07/02 09:04:28;;;;;;;12.18;3.53;;;21.50;57.80;;;;;;4023447;29;20057;-58
2023/07/02 09:07:12;;;;;;;10.00;3.80;;;21.50;58.70;;;;;;4022144;29;20161;-55
2023/07/02 09:09:55;;;;;;;14.48;4.70;;;21.50;58.30;;;;;;4021275;29;20064;-56
2023/07/02 09:12:38;;;;;;;8.63;2.95;;;21.50;58.40;;;;;;4019738;29;20065;-50
2023/07/02 09:15:20;;;;;;;10.57;4.00;;;21.60;58.60;;;;;;4021135;29;20190;-49
2023/07/02 09:18:01;;;;;;;9.57;3.38;;;21.60;58.60;;;;;;4019917;29;20462;-49
2023/07/02 09:20:45;;;;;;;6.20;2.95;;;21.60;58.50;;;;;;4019131;29;20140;-57
2023/07/02 09:23:35;;;;;;;8.38;3.25;;;21.60;58.60;;;;;;4007527;29;20064;-57
2023/07/02 09:26:22;;;;;;;6.82;3.63;;;21.60;58.20;;;;;;4022707;29;20156;-58
2023/07/02 09:29:03;;;;;;;11.23;3.47;;;21.70;58.00;;;;;;4007850;29;20065;-59
2023/07/02 09:31:45;;;;;;;;;;;21.70;58.10;;;;;;4009891;29;20065;-52
2023/07/02 09:34:44;;;;;;;5.75;3.10;;;21.70;58.10;;;;;;4012938;29;19931;-50
2023/07/02 09:37:25;;;;;;;;;;;21.70;58.10;;;;;;3996456;29;20086;-52
2023/07/02 09:40:08;;;;;;;8.93;2.88;;;21.80;58.20;;;;;;4016022;29;20307;-51
2023/07/02 09:42:52;;;;;;;9.98;2.70;;;21.80;58.10;;;;;;4020450;29;20060;-52
2023/07/02 09:45:33;;;;;;;8.15;2.53;;;21.80;57.80;;;;;;4007360;29;20146;-53
2023/07/02 09:48:15;;;;;;;3.35;2.40;;;21.80;57.80;;;;;;4020626;29;21000;-52
2023/07/02 09:51:00;;;;;;;7.13;2.25;;;21.90;57.90;;;;;;4022856;29;20141;-51
2023/07/02 09:53:41;;;;;;;7.30;2.40;;;21.90;57.90;;;;;;4022762;29;20132;-50
2023/07/02 09:56:22;;;;;;;15.18;2.85;;;21.90;57.60;;;;;;4014786;29;20061;-52
2023/07/02 09:59:04;;;;;;;6.70;2.17;;;21.90;57.00;;;;;;3996055;29;20189;-48
2023/07/02 10:01:45;;;;;;;5.70;2.58;;;21.90;57.30;;;;;;3996400;29;20088;-51
2023/07/02 10:04:26;;;;;;;10.63;3.25;;;22.00;57.60;;;;;;4007090;29;20797;-57
2023/07/02 10:07:08;;;;;;;11.48;2.90;;;22.00;57.60;;;;;;4007265;29;20060;-58
2023/07/02 10:09:49;;;;;;;3.20;2.10;;;21.90;57.40;;;;;;4008709;29;20142;-57
2023/07/02 10:12:31;;;;;;;6.55;2.17;;;22.00;57.50;;;;;;4012609;29;20065;-58
2023/07/02 10:15:26;;;;;;;5.47;2.72;;;22.00;57.20;;;;;;4026196;29;20056;-51
2023/07/02 10:18:07;;;;;;;6.15;2.60;;;22.00;56.80;;;;;;4024881;29;20517;-52
2023/07/02 10:20:48;;;;;;;4.00;2.03;;;22.00;57.20;;;;;;4034269;29;20067;-52
2023/07/02 10:23:36;;;;;;;;;;;22.10;56.60;;;;;;4007363;29;20066;-52
2023/07/02 10:26:18;;;;;;;7.82;2.40;;;22.10;57.00;;;;;;4006771;29;19984;-50
2023/07/02 10:28:59;;;;;;;7.05;1.98;;;22.00;56.60;;;;;;4006887;29;20222;-51
2023/07/02 10:31:50;;;;;;;8.73;1.85;;;22.10;56.30;;;;;;3995757;29;20513;-50
2023/07/02 10:34:32;;;;;;;5.55;2.60;;;22.00;55.60;;;;;;4015691;29;20417;-52
2023/07/02 10:37:13;;;;;;;10.90;2.75;;;22.00;55.80;;;;;;4010637;29;20064;-50
2023/07/02 10:39:55;;;;;;;6.72;2.47;;;22.00;55.80;;;;;;4022107;29;20569;-57
2023/07/02 10:42:46;;;;;;;4.40;2.03;;;22.00;55.80;;;;;;4022116;29;20072;-57
2023/07/02 10:48:31;;;;;;;5.07;2.30;;;22.00;56.20;;;;;;4023872;29;20068;-57
2023/07/02 10:51:13;;;;;;;7.38;2.50;;;22.10;56.60;;;;;;4010612;29;20076;-57
2023/07/02 10:53:59;;;;;;;6.88;2.35;;;22.00;56.20;;;;;;4022259;29;20105;-57
2023/07/02 10:56:43;;;;;;;5.68;2.78;;;22.00;55.90;;;;;;4021714;29;20081;-57
2023/07/02 10:59:27;;;;;;;7.93;3.03;;;22.00;56.30;;;;;;4022117;29;20410;-56
2023/07/02 11:02:09;;;;;;;8.07;2.50;;;22.00;56.50;;;;;;4007674;29;20520;-57
2023/07/02 11:04:53;;;;;;;5.38;2.30;;;22.10;57.40;;;;;;4006392;29;20135;-57
2023/07/02 11:07:34;;;;;;;8.18;2.90;;;22.10;56.80;;;;;;3995232;29;20068;-57
2023/07/02 11:10:18;;;;;;;;;;;22.10;57.00;;;;;;4009873;29;20064;-57
2023/07/02 11:13:10;;;;;;;6.53;2.70;;;22.10;57.10;;;;;;4021144;29;19931;-57
2023/07/02 11:15:51;;;;;;;6.32;2.88;;;22.10;56.80;;;;;;4006208;29;20118;-57
2023/07/02 11:18:32;;;;;;;7.28;2.70;;;22.10;56.50;;;;;;4015631;29;20068;-57
2023/07/02 11:21:15;;;;;;;4.07;2.42;;;22.00;56.60;;;;;;4021369;29;20601;-57
2023/07/02 11:24:03;;;;;;;7.68;2.65;;;22.10;57.10;;;;;;4021654;29;20060;-57
2023/07/02 11:26:44;;;;;;;7.32;2.65;;;22.00;56.80;;;;;;4009682;29;20225;-57
2023/07/02 11:29:25;;;;;;;9.85;2.75;;;22.00;57.70;;;;;;3999191;29;20068;-56
2023/07/02 11:32:07;;;;;;;9.00;3.20;;;22.00;57.10;;;;;;4009811;29;20421;-57
2023/07/02 11:34:54;;;;;;;9.57;2.85;;;22.00;57.30;;;;;;4021246;29;20056;-56
2023/07/02 11:37:37;;;;;;;11.38;2.92;;;22.00;57.10;;;;;;4015970;29;20409;-56
2023/07/02 11:40:21;;;;;;;5.68;2.63;;;22.00;57.10;;;;;;4021094;29;20569;-57
2023/07/02 11:43:02;;;;;;;6.60;2.60;;;22.00;56.60;;;;;;4006403;29;20418;-57
2023/07/02 11:45:44;;;;;;;3.45;2.60;;;22.00;57.50;;;;;;4019338;29;20271;-59
2023/07/02 11:54:26;;;;;;;6.05;2.25;;;22.00;56.50;;;;;;4571067;24;20242;-51
2023/07/02 12:00:03;;;;;;;5.60;2.08;;;22.00;56.50;;;;;;4005898;24;20202;-58
2023/07/02 12:02:48;;;;;;;5.95;2.25;;;22.10;56.60;;;;;;4020730;29;20064;-54
2023/07/02 12:05:29;;;;;;;3.95;2.22;;;22.10;56.40;;;;;;4020669;29;20137;-52
2023/07/02 12:08:10;;;;;;;8.35;2.38;;;22.10;56.00;;;;;;4020825;29;20063;-53
2023/07/02 12:10:52;;;;;;;4.10;2.00;;;22.10;56.50;;;;;;4020721;29;20056;-53
2023/07/02 12:13:34;;;;;;;7.18;2.42;;;22.10;56.30;;;;;;4020127;29;20209;-53
2023/07/02 12:16:15;;;;;;;7.50;2.80;;;22.20;56.20;;;;;;4013281;29;20105;-53
2023/07/02 12:18:56;;;;;;;;;;;22.10;56.10;;;;;;4020669;29;20064;-54
2023/07/02 12:21:37;;;;;;;5.55;1.92;;;22.20;56.50;;;;;;4016691;29;20048;-48
2023/07/02 12:24:19;;;;;;;5.57;2.05;;;22.20;56.70;;;;;;4018765;29;20110;-58
2023/07/02 12:27:01;;;;;;;6.45;2.33;;;22.20;56.30;;;;;;4023589;29;20056;-55
2023/07/02 12:29:43;;;;;;;7.78;2.60;;;22.20;56.20;;;;;;4023352;29;20700;-58
2023/07/02 12:32:26;;;;;;;5.57;2.67;;;22.20;56.40;;;;;;4017191;29;20060;-57
2023/07/02 12:35:08;;;;;;;7.18;2.58;;;22.30;56.10;;;;;;4023347;29;20064;-50
2023/07/02 12:37:51;;;;;;;4.65;2.20;;;22.30;56.20;;;;;;4019471;29;20064;-59
2023/07/02 12:40:32;;;;;;;7.93;2.60;;;22.30;55.60;;;;;;4000778;29;20068;-59
2023/07/02 12:43:14;;;;;;;4.38;2.50;;;22.30;55.40;;;;;;3990411;29;20093;-56
2023/07/02 12:45:55;;;;;;;4.55;2.20;;;22.30;55.30;;;;;;4003391;29;20057;-55
2023/07/02 12:48:36;;;;;;;7.43;3.05;;;22.30;55.90;;;;;;3999584;29;20128;-54
2023/07/02 12:51:17;;;;;;;4.25;2.40;;;22.30;55.10;;;;;;4006077;29;20060;-56
2023/07/02 12:54:00;;;;;;;5.75;2.63;;;22.40;55.10;;;;;;3999811;29;20069;-60
2023/07/02 12:56:41;;;;;;;;;;;22.40;55.20;;;;;;4002066;29;20105;-58
2023/07/02 12:59:23;;;;;;;6.03;2.55;;;22.40;55.30;;;;;;4004070;29;19935;-57
2023/07/02 13:02:06;;;;;;;5.28;2.88;;;22.40;55.60;;;;;;4018168;29;20061;-52
2023/07/02 13:04:47;;;;;;;9.32;2.78;;;22.40;55.20;;;;;;4008015;29;20056;-52
2023/07/02 13:07:30;;;;;;;6.43;3.45;;;22.40;54.50;;;;;;4018377;29;20064;-55
2023/07/02 13:10:10;;;;;;;5.90;2.97;;;22.40;55.00;;;;;;4018088;29;20137;-56
2023/07/02 13:12:51;;;;;;;10.00;2.92;;;22.40;55.30;;;;;;4019194;29;20060;-55
2023/07/02 13:15:35;;;;;;;8.18;3.03;;;22.40;56.00;;;;;;4011891;29;20129;-55
2023/07/02 13:18:16;;;;;;;8.43;3.28;;;22.40;56.20;;;;;;3996178;29;20186;-58
2023/07/02 13:20:56;;;;;;;5.63;3.20;;;22.30;55.60;;;;;;4000432;29;20521;-57
2023/07/02 13:23:38;;;;;;;10.60;3.50;;;22.30;55.80;;;;;;4013341;29;20197;-59
2023/07/02 13:26:19;;;;;;;;;;;22.30;55.60;;;;;;4014241;29;20056;-57
2023/07/02 13:29:00;;;;;;;7.45;3.30;;;22.30;57.10;;;;;;4013454;29;19935;-57
2023/07/02 13:31:43;;;;;;;9.30;3.55;;;22.30;56.40;;;;;;4011355;29;20193;-57
2023/07/02 13:34:24;;;;;;;8.52;3.72;;;22.30;55.80;;;;;;4018822;29;20051;-57
2023/07/02 13:37:05;;;;;;;10.77;4.30;;;22.30;55.40;;;;;;4001162;29;20162;-57
2023/07/02 13:39:46;;;;;;;;;;;22.30;55.60;;;;;;4013789;29;20513;-58
2023/07/02 13:42:27;;;;;;;;;;;22.30;55.90;;;;;;4012773;29;20378;-58
2023/07/02 13:45:09;;;;;;;;;;;22.30;56.30;;;;;;4005963;29;20064;-58
2023/07/02 13:47:51;;;;;;;;;;;22.30;56.20;;;;;;4014521;29;19944;-54
2023/07/02 13:50:31;;;;;;;;;;;22.30;56.00;;;;;;3995921;29;28253;-55
2023/07/02 13:53:12;;;;;;;;;;;22.30;56.10;;;;;;4012684;29;19931;-54
2023/07/02 13:55:53;;;;;;;;;;;22.30;55.80;;;;;;4012534;29;20432;-51
2023/07/02 13:58:59;;;;;;;;;;;22.30;56.00;;;;;;4013578;29;20144;-56
2023/07/02 14:01:40;;;;;;;;;;;22.30;55.80;;;;;;4013654;29;19940;-56
2023/07/02 14:04:21;;;;;;;;;;;22.30;56.00;;;;;;4003048;29;20003;-52
2023/07/02 14:07:03;;;;;;;;;;;22.30;56.10;;;;;;4016277;29;19935;-54
2023/07/02 14:09:44;;;;;;;;;;;22.30;55.80;;;;;;4017128;29;19935;-55
2023/07/02 14:12:25;;;;;;;;;;;22.30;56.00;;;;;;4005621;29;19935;-54
2023/07/02 14:15:08;;;;;;;;;;;22.20;55.90;;;;;;4017290;29;20315;-53
2023/07/02 14:17:49;;;;;;;;;;;22.30;55.60;;;;;;4016288;29;20011;-54